Time;durP1;ratioP1;P1;durP2;ratioP2;P2;SDS_P1;SDS_P2;PMS_P1;PMS_P2;Temp;Humidity;BMP_temperature;BMP_pressure;BME280_temperature;BME280_humidity;BME280_pressure;Samples;Min_cycle;Max_cycle;Signal;HPM_P1;HPM_P2
2021/05/22 00:01:47;;;;;;;;;;;21.10;44.10;;;;;;491580;240;1230;-73
2021/05/22 00:03:50;;;;;;;;;;;21.10;44.00;;;;;;491553;240;2148;-73
2021/05/22 00:05:50;;;;;;;;;;;21.20;43.80;;;;;;491555;240;1467;-73
2021/05/22 00:07:51;;;;;;;;;;;21.10;43.80;;;;;;491550;240;1125;-73
2021/05/22 00:09:52;;;;;;;;;;;21.20;43.60;;;;;;491535;240;973;-73
2021/05/22 00:11:53;;;;;;;;;;;21.10;43.60;;;;;;491506;240;1251;-73
2021/05/22 00:13:56;;;;;;;;;;;21.10;43.70;;;;;;491470;240;1215;-73
2021/05/22 00:15:56;;;;;;;;;;;21.10;43.70;;;;;;491487;240;1343;-73
2021/05/22 00:17:57;;;;;;;;;;;21.10;43.60;;;;;;491419;240;1155;-73
2021/05/22 00:19:59;;;;;;;;;;;21.10;43.70;;;;;;491577;240;1061;-73
2021/05/22 00:22:00;;;;;;;;;;;21.10;43.60;;;;;;491554;240;1405;-73
2021/05/22 00:24:01;;;;;;;;;;;21.10;43.50;;;;;;491616;240;2188;-73
2021/05/22 00:26:02;;;;;;;;;;;21.10;43.60;;;;;;491525;240;1004;-73
2021/05/22 00:28:04;;;;;;;;;;;21.10;43.50;;;;;;491653;240;1335;-73
2021/05/22 00:30:05;;;;;;;;;;;21.20;43.40;;;;;;491733;240;997;-73
2021/05/22 00:32:06;;;;;;;;;;;21.10;43.30;;;;;;491605;240;945;-73
2021/05/22 00:34:08;;;;;;;;;;;21.20;43.30;;;;;;491590;240;1073;-73
2021/05/22 00:36:09;;;;;;;;;;;21.20;43.20;;;;;;491418;240;1024;-73
2021/05/22 00:38:10;;;;;;;;;;;21.10;43.20;;;;;;491449;240;1043;-73
2021/05/22 00:40:12;;;;;;;;;;;21.10;43.40;;;;;;491515;240;1076;-73
2021/05/22 00:42:13;;;;;;;;;;;21.10;43.40;;;;;;491488;240;1091;-73
2021/05/22 00:44:14;;;;;;;;;;;21.10;43.30;;;;;;491547;240;2187;-73
2021/05/22 00:46:16;;;;;;;;;;;21.10;43.30;;;;;;491517;240;1038;-73
2021/05/22 00:48:19;;;;;;;;;;;21.00;43.50;;;;;;491635;240;1038;-73
2021/05/22 00:50:19;;;;;;;;;;;21.20;43.20;;;;;;491735;240;1251;-73
2021/05/22 00:52:20;;;;;;;;;;;21.10;43.20;;;;;;491607;240;1009;-73
2021/05/22 00:54:21;;;;;;;;;;;21.10;43.10;;;;;;491642;240;1078;-73
2021/05/22 00:56:23;;;;;;;;;;;21.10;43.10;;;;;;491582;240;1039;-73
2021/05/22 00:58:24;;;;;;;;;;;21.10;43.00;;;;;;491574;240;1101;-73
2021/05/22 01:00:25;;;;;;;;;;;21.20;42.80;;;;;;491649;240;1031;-73
2021/05/22 01:02:26;;;;;;;;;;;21.30;42.80;;;;;;491460;240;950;-73
2021/05/22 01:04:28;;;;;;;;;;;21.20;42.80;;;;;;491450;240;2179;-73
2021/05/22 01:06:29;;;;;;;;;;;21.20;42.80;;;;;;491475;240;1283;-73
2021/05/22 01:08:31;;;;;;;;;;;21.20;42.70;;;;;;491533;240;1104;-73
2021/05/22 01:10:32;;;;;;;;;;;21.20;42.80;;;;;;491461;240;973;-73
2021/05/22 01:12:33;;;;;;;;;;;21.10;42.90;;;;;;491492;240;1014;-73
2021/05/22 01:14:34;;;;;;;;;;;21.10;43.00;;;;;;491602;240;1246;-73
2021/05/22 01:16:36;;;;;;;;;;;21.00;43.00;;;;;;491508;240;1208;-73
2021/05/22 01:18:37;;;;;;;;;;;21.10;43.00;;;;;;491544;240;1136;-73
2021/05/22 01:20:38;;;;;;;;;;;21.10;42.80;;;;;;491664;240;1056;-73
2021/05/22 01:22:40;;;;;;;;;;;21.10;42.80;;;;;;491515;240;1108;-73
2021/05/22 01:24:41;;;;;;;;;;;21.10;42.80;;;;;;491710;240;2140;-73
2021/05/22 01:26:42;;;;;;;;;;;21.20;42.70;;;;;;491449;240;1147;-73
2021/05/22 01:28:43;;;;;;;;;;;21.20;42.60;;;;;;491549;240;1165;-73
2021/05/22 01:30:45;;;;;;;;;;;21.10;42.70;;;;;;491448;240;1344;-73
2021/05/22 01:32:46;;;;;;;;;;;21.10;42.70;;;;;;491442;240;1134;-73
2021/05/22 01:34:48;;;;;;;;;;;21.10;42.70;;;;;;491538;240;1051;-73
2021/05/22 01:36:49;;;;;;;;;;;21.10;42.70;;;;;;491402;240;1205;-73
2021/05/22 01:38:50;;;;;;;;;;;21.10;42.80;;;;;;491435;240;947;-73
2021/05/22 01:40:51;;;;;;;;;;;21.10;42.70;;;;;;491505;240;1192;-73
2021/05/22 01:42:53;;;;;;;;;;;21.20;42.60;;;;;;491590;240;1147;-73
2021/05/22 01:44:54;;;;;;;;;;;21.20;42.50;;;;;;491613;240;2199;-73
2021/05/22 01:46:55;;;;;;;;;;;21.40;42.20;;;;;;491547;240;1239;-73
2021/05/22 01:48:57;;;;;;;;;;;21.20;42.20;;;;;;491663;240;1043;-73
2021/05/22 01:50:58;;;;;;;;;;;21.30;42.10;;;;;;491589;240;1070;-73
2021/05/22 01:52:59;;;;;;;;;;;21.20;42.30;;;;;;491565;240;1119;-73
2021/05/22 01:55:02;;;;;;;;;;;21.20;42.50;;;;;;491588;240;1067;-73
2021/05/22 01:57:02;;;;;;;;;;;21.20;42.40;;;;;;491443;240;1516;-73
2021/05/22 01:59:03;;;;;;;;;;;21.20;42.30;;;;;;491517;240;1131;-73
2021/05/22 02:01:04;;;;;;;;;;;21.20;42.30;;;;;;491509;240;1071;-73
2021/05/22 02:03:06;;;;;;;;;;;21.20;42.40;;;;;;491434;240;1058;-73
2021/05/22 02:05:07;;;;;;;;;;;21.20;42.30;;;;;;491545;240;2179;-73
2021/05/22 02:07:08;;;;;;;;;;;21.20;42.30;;;;;;491492;240;1090;-73
2021/05/22 02:09:09;;;;;;;;;;;21.20;42.30;;;;;;491546;240;1068;-73
2021/05/22 02:11:11;;;;;;;;;;;21.20;42.20;;;;;;491557;240;981;-73
2021/05/22 02:13:12;;;;;;;;;;;21.20;42.20;;;;;;491582;240;1039;-73
2021/05/22 02:15:13;;;;;;;;;;;21.10;42.20;;;;;;491596;240;1162;-73
2021/05/22 02:17:15;;;;;;;;;;;21.10;42.20;;;;;;491512;240;1099;-73
2021/05/22 02:19:16;;;;;;;;;;;21.10;42.20;;;;;;491618;240;1020;-73
2021/05/22 02:21:17;;;;;;;;;;;21.20;42.30;;;;;;491464;240;1083;-73
2021/05/22 02:23:19;;;;;;;;;;;21.10;42.20;;;;;;491458;240;1160;-73
2021/05/22 02:25:20;;;;;;;;;;;21.20;42.00;;;;;;491480;240;2128;-73
2021/05/22 02:27:21;;;;;;;;;;;21.20;42.10;;;;;;491467;240;1131;-73
2021/05/22 02:29:22;;;;;;;;;;;21.20;42.00;;;;;;491508;240;1202;-73
2021/05/22 02:31:24;;;;;;;;;;;21.20;42.10;;;;;;491463;240;1125;-73
2021/05/22 02:33:25;;;;;;;;;;;21.10;42.10;;;;;;491500;240;1004;-73
2021/05/22 02:35:26;;;;;;;;;;;21.00;42.20;;;;;;491610;240;1048;-73
2021/05/22 02:37:27;;;;;;;;;;;21.00;42.20;;;;;;491482;240;1128;-73
2021/05/22 02:39:29;;;;;;;;;;;21.00;42.40;;;;;;491551;240;1108;-73
2021/05/22 02:41:30;;;;;;;;;;;21.00;42.30;;;;;;491487;240;1111;-73
2021/05/22 02:43:31;;;;;;;;;;;21.10;42.20;;;;;;491637;240;1088;-73
2021/05/22 02:45:33;;;;;;;;;;;21.00;42.00;;;;;;491585;240;2191;-73
2021/05/22 02:47:34;;;;;;;;;;;21.10;41.90;;;;;;491493;240;1100;-73
2021/05/22 02:49:41;;;;;;;;;;;21.20;41.80;;;;;;491543;240;1166;-73
2021/05/22 02:51:36;;;;;;;;;;;21.20;41.70;;;;;;491586;240;1379;-73
2021/05/22 02:53:38;;;;;;;;;;;21.10;41.80;;;;;;491453;240;1216;-73
2021/05/22 02:55:39;;;;;;;;;;;21.10;41.70;;;;;;491490;240;1091;-73
2021/05/22 02:57:41;;;;;;;;;;;21.10;41.60;;;;;;491375;240;1171;-73
2021/05/22 02:59:42;;;;;;;;;;;21.10;41.70;;;;;;491550;240;1291;-73
2021/05/22 03:01:43;;;;;;;;;;;21.00;41.70;;;;;;491420;240;1123;-73
2021/05/22 03:03:44;;;;;;;;;;;21.10;41.70;;;;;;491579;240;1034;-73
2021/05/22 03:05:46;;;;;;;;;;;21.20;41.60;;;;;;491528;240;2131;-73
2021/05/22 03:07:47;;;;;;;;;;;21.20;41.60;;;;;;491534;240;1176;-73
2021/05/22 03:09:48;;;;;;;;;;;21.10;41.50;;;;;;491543;240;995;-73
2021/05/22 03:11:49;;;;;;;;;;;21.10;41.50;;;;;;491523;240;1211;-73
2021/05/22 03:13:51;;;;;;;;;;;21.20;41.50;;;;;;491604;240;1072;-73
2021/05/22 03:15:52;;;;;;;;;;;21.20;41.50;;;;;;491493;240;1308;-73
2021/05/22 03:17:53;;;;;;;;;;;21.10;41.50;;;;;;491385;240;1162;-73
2021/05/22 03:19:55;;;;;;;;;;;21.00;41.60;;;;;;491567;240;1129;-73
2021/05/22 03:21:56;;;;;;;;;;;21.00;41.50;;;;;;491372;240;1222;-73
2021/05/22 03:23:58;;;;;;;;;;;21.10;41.50;;;;;;491463;240;1047;-73
2021/05/22 03:25:59;;;;;;;;;;;21.00;41.40;;;;;;491451;240;2128;-73
2021/05/22 03:28:00;;;;;;;;;;;21.20;41.40;;;;;;491475;240;1138;-73
2021/05/22 03:30:01;;;;;;;;;;;21.10;41.40;;;;;;491665;240;1088;-73
2021/05/22 03:32:03;;;;;;;;;;;21.10;41.30;;;;;;491545;240;1209;-73
2021/05/22 03:34:04;;;;;;;;;;;21.10;41.20;;;;;;491626;240;971;-73
2021/05/22 03:36:05;;;;;;;;;;;21.10;41.30;;;;;;491590;240;1250;-73
2021/05/22 03:38:06;;;;;;;;;;;21.10;41.30;;;;;;491580;240;1154;-73
2021/05/22 03:40:08;;;;;;;;;;;21.10;41.40;;;;;;491505;240;1092;-73
2021/05/22 03:42:09;;;;;;;;;;;21.10;41.30;;;;;;491412;240;1317;-73
2021/05/22 03:44:10;;;;;;;;;;;21.10;41.20;;;;;;491552;240;929;-73
2021/05/22 03:46:12;;;;;;;;;;;21.20;41.10;;;;;;491503;240;2153;-73
2021/05/22 03:48:13;;;;;;;;;;;21.30;40.80;;;;;;491490;240;1156;-73
2021/05/22 03:50:15;;;;;;;;;;;21.30;40.80;;;;;;491549;240;1112;-73
2021/05/22 03:52:16;;;;;;;;;;;21.20;41.00;;;;;;491472;240;1070;-73
2021/05/22 03:54:17;;;;;;;;;;;21.20;40.90;;;;;;491643;240;1088;-73
2021/05/22 03:56:18;;;;;;;;;;;21.20;40.90;;;;;;491592;240;1031;-73
2021/05/22 03:58:20;;;;;;;;;;;21.20;40.90;;;;;;491544;240;1079;-73
2021/05/22 04:00:21;;;;;;;;;;;21.20;40.90;;;;;;491622;240;1155;-73
2021/05/22 04:02:22;;;;;;;;;;;21.20;40.80;;;;;;491610;240;1026;-73
2021/05/22 04:04:24;;;;;;;;;;;21.20;40.80;;;;;;491563;240;1017;-73
2021/05/22 04:06:25;;;;;;;;;;;21.20;40.90;;;;;;491641;240;2148;-73
2021/05/22 04:08:26;;;;;;;;;;;21.20;40.90;;;;;;491617;240;1080;-73
2021/05/22 04:10:27;;;;;;;;;;;21.10;41.00;;;;;;491442;240;1166;-73
2021/05/22 04:12:29;;;;;;;;;;;21.00;40.90;;;;;;491429;240;1012;-73
2021/05/22 04:14:30;;;;;;;;;;;21.00;41.00;;;;;;491510;240;997;-73
2021/05/22 04:16:31;;;;;;;;;;;21.00;41.10;;;;;;491474;240;1171;-73
2021/05/22 04:18:32;;;;;;;;;;;20.90;41.20;;;;;;491535;240;1108;-73
2021/05/22 04:20:34;;;;;;;;;;;20.90;41.20;;;;;;491595;240;1102;-73
2021/05/22 04:22:35;;;;;;;;;;;20.90;41.10;;;;;;491541;240;1171;-73
2021/05/22 04:24:36;;;;;;;;;;;20.90;41.10;;;;;;491646;240;991;-73
2021/05/22 04:26:38;;;;;;;;;;;20.90;41.30;;;;;;491565;240;2160;-73
2021/05/22 04:28:39;;;;;;;;;;;20.90;41.30;;;;;;491548;240;1086;-73
2021/05/22 04:30:40;;;;;;;;;;;20.90;41.20;;;;;;491687;240;1155;-73
2021/05/22 04:32:41;;;;;;;;;;;20.90;41.20;;;;;;491564;240;1149;-73
2021/05/22 04:34:43;;;;;;;;;;;20.90;41.20;;;;;;491543;240;1059;-73
2021/05/22 04:36:44;;;;;;;;;;;20.80;41.20;;;;;;491437;240;1209;-73
2021/05/22 04:38:45;;;;;;;;;;;20.80;41.20;;;;;;491442;240;1047;-73
2021/05/22 04:40:47;;;;;;;;;;;20.80;41.10;;;;;;491505;240;1112;-73
2021/05/22 04:42:48;;;;;;;;;;;20.90;41.10;;;;;;491571;240;1211;-73
2021/05/22 04:44:49;;;;;;;;;;;20.80;41.20;;;;;;491405;240;1003;-73
2021/05/22 04:46:50;;;;;;;;;;;20.80;41.10;;;;;;491544;240;2160;-73
2021/05/22 04:48:54;;;;;;;;;;;20.80;41.10;;;;;;491601;240;1090;-73
2021/05/22 04:50:55;;;;;;;;;;;20.80;40.90;;;;;;491599;240;1508;-73
2021/05/22 04:52:56;;;;;;;;;;;20.90;41.00;;;;;;491529;240;1471;-73
2021/05/22 04:54:57;;;;;;;;;;;20.90;40.90;;;;;;491617;240;1037;-73
2021/05/22 04:56:58;;;;;;;;;;;20.80;41.00;;;;;;491507;240;953;-73
2021/05/22 04:58:59;;;;;;;;;;;20.90;41.00;;;;;;491688;240;1044;-73
2021/05/22 05:01:01;;;;;;;;;;;20.80;41.00;;;;;;491560;240;1124;-73
2021/05/22 05:03:02;;;;;;;;;;;20.90;41.00;;;;;;491559;240;1049;-73
2021/05/22 05:05:03;;;;;;;;;;;20.90;40.90;;;;;;491490;240;990;-73
2021/05/22 05:07:04;;;;;;;;;;;20.90;40.80;;;;;;491459;240;2172;-73
2021/05/22 05:09:06;;;;;;;;;;;20.90;40.90;;;;;;491481;240;1022;-73
2021/05/22 05:11:07;;;;;;;;;;;20.90;40.80;;;;;;491499;240;1107;-73
2021/05/22 05:13:08;;;;;;;;;;;20.90;40.80;;;;;;491542;240;1068;-73
2021/05/22 05:15:10;;;;;;;;;;;20.80;40.90;;;;;;491567;240;1031;-73
2021/05/22 05:17:11;;;;;;;;;;;20.80;41.00;;;;;;491595;240;1194;-73
2021/05/22 05:19:13;;;;;;;;;;;20.80;41.20;;;;;;491599;240;958;-73
2021/05/22 05:21:14;;;;;;;;;;;20.80;41.10;;;;;;491564;240;972;-73
2021/05/22 05:23:15;;;;;;;;;;;20.90;41.10;;;;;;491623;240;953;-73
2021/05/22 05:25:17;;;;;;;;;;;20.90;41.10;;;;;;491607;240;2176;-73
2021/05/22 05:27:18;;;;;;;;;;;20.80;41.10;;;;;;491481;240;1007;-73
2021/05/22 05:29:19;;;;;;;;;;;20.80;41.00;;;;;;491481;240;1141;-73
2021/05/22 05:31:20;;;;;;;;;;;20.80;41.10;;;;;;491463;240;1511;-73
2021/05/22 05:33:22;;;;;;;;;;;20.80;41.00;;;;;;491460;240;1020;-73
2021/05/22 05:35:23;;;;;;;;;;;20.80;41.10;;;;;;491462;240;1230;-73
2021/05/22 05:37:24;;;;;;;;;;;20.90;41.00;;;;;;491420;240;1083;-73
2021/05/22 05:39:26;;;;;;;;;;;20.90;40.90;;;;;;491507;240;1077;-73
2021/05/22 05:41:27;;;;;;;;;;;20.90;41.00;;;;;;491618;240;1094;-73
2021/05/22 05:43:28;;;;;;;;;;;20.90;41.00;;;;;;491643;240;962;-73
2021/05/22 05:45:29;;;;;;;;;;;20.80;41.10;;;;;;491505;240;2136;-73
2021/05/22 05:47:31;;;;;;;;;;;20.90;40.90;;;;;;491526;240;1152;-73
2021/05/22 05:49:32;;;;;;;;;;;20.80;41.10;;;;;;491576;240;1045;-73
2021/05/22 05:51:33;;;;;;;;;;;20.80;41.10;;;;;;491549;240;1342;-73
2021/05/22 05:53:35;;;;;;;;;;;20.80;41.10;;;;;;491510;240;1040;-73
2021/05/22 05:55:36;;;;;;;;;;;20.80;41.10;;;;;;491491;240;968;-73
2021/05/22 05:57:38;;;;;;;;;;;20.80;41.10;;;;;;491433;240;1132;-73
2021/05/22 05:59:39;;;;;;;;;;;20.80;41.10;;;;;;491468;240;1099;-73
2021/05/22 06:01:40;;;;;;;;;;;20.80;41.10;;;;;;491364;240;1249;-73
2021/05/22 06:03:42;;;;;;;;;;;20.80;41.00;;;;;;491399;240;1047;-73
2021/05/22 06:05:43;;;;;;;;;;;20.80;41.00;;;;;;491486;240;2171;-73
2021/05/22 06:07:44;;;;;;;;;;;20.80;41.10;;;;;;491464;240;1149;-73
2021/05/22 06:09:47;;;;;;;;;;;20.70;41.10;;;;;;491594;240;930;-73
2021/05/22 06:11:47;;;;;;;;;;;20.80;41.10;;;;;;491643;240;1413;-73
2021/05/22 06:13:48;;;;;;;;;;;20.80;41.10;;;;;;491657;240;1047;-73
2021/05/22 06:15:57;;;;;;;;;;;20.80;41.10;;;;;;491523;240;1224;-73
2021/05/22 06:17:50;;;;;;;;;;;20.80;41.00;;;;;;491692;240;1284;-73
2021/05/22 06:19:52;;;;;;;;;;;20.90;41.00;;;;;;491591;240;1108;-73
2021/05/22 06:21:53;;;;;;;;;;;20.90;41.00;;;;;;491477;240;1224;-73
2021/05/22 06:23:54;;;;;;;;;;;20.80;41.00;;;;;;491446;240;971;-73
2021/05/22 06:25:55;;;;;;;;;;;20.90;41.00;;;;;;491453;240;2128;-73
2021/05/22 06:27:57;;;;;;;;;;;20.90;41.00;;;;;;491427;240;1260;-73
2021/05/22 06:29:58;;;;;;;;;;;20.90;41.00;;;;;;491472;240;1106;-73
2021/05/22 06:31:59;;;;;;;;;;;20.80;41.20;;;;;;491488;240;1310;-73
2021/05/22 06:34:01;;;;;;;;;;;20.90;41.10;;;;;;491503;240;1101;-73
2021/05/22 06:36:02;;;;;;;;;;;20.90;41.00;;;;;;491682;240;967;-73
2021/05/22 06:38:04;;;;;;;;;;;20.90;41.00;;;;;;491555;240;1012;-73
2021/05/22 06:40:05;;;;;;;;;;;20.80;41.10;;;;;;491595;240;954;-73
2021/05/22 06:42:06;;;;;;;;;;;20.80;41.20;;;;;;491595;240;1046;-73
2021/05/22 06:44:11;;;;;;;;;;;20.80;41.20;;;;;;491503;240;1057;-73
2021/05/22 06:46:46;;;;;;;;;;;20.80;41.20;;;;;;491464;240;2141;-73
2021/05/22 06:48:10;;;;;;;;;;;20.80;41.20;;;;;;491597;240;1204;-73
2021/05/22 06:50:12;;;;;;;;;;;20.90;41.10;;;;;;491474;240;1164;-74
2021/05/22 06:52:13;;;;;;;;;;;20.80;41.20;;;;;;491439;240;1059;-74
2021/05/22 06:54:14;;;;;;;;;;;20.80;41.10;;;;;;491509;240;1082;-73
2021/05/22 06:56:16;;;;;;;;;;;20.80;41.20;;;;;;491449;240;1016;-73
2021/05/22 06:58:18;;;;;;;;;;;20.70;41.30;;;;;;491464;240;1080;-73
2021/05/22 07:00:19;;;;;;;;;;;20.70;41.60;;;;;;491564;240;968;-73
2021/05/22 07:02:21;;;;;;;;;;;20.70;41.50;;;;;;491526;240;1166;-73
2021/05/22 07:04:22;;;;;;;;;;;20.70;41.50;;;;;;491552;240;1110;-73
2021/05/22 07:06:24;;;;;;;;;;;20.80;41.50;;;;;;491626;240;2148;-73
2021/05/22 07:08:25;;;;;;;;;;;20.70;41.50;;;;;;491576;240;1392;-73
2021/05/22 07:10:26;;;;;;;;;;;20.70;41.50;;;;;;491588;240;1049;-73
2021/05/22 07:12:27;;;;;;;;;;;20.70;41.50;;;;;;491598;240;1033;-73
2021/05/22 07:14:29;;;;;;;;;;;20.80;41.30;;;;;;491468;240;1058;-73
2021/05/22 07:16:30;;;;;;;;;;;20.80;41.30;;;;;;491515;240;979;-73
2021/05/22 07:18:31;;;;;;;;;;;20.70;41.40;;;;;;491583;240;1137;-73
2021/05/22 07:20:33;;;;;;;;;;;20.70;41.40;;;;;;491538;240;957;-73
2021/05/22 07:22:34;;;;;;;;;;;20.80;41.40;;;;;;491578;240;1060;-73
2021/05/22 07:24:35;;;;;;;;;;;20.90;41.40;;;;;;491498;240;1052;-73
2021/05/22 07:26:36;;;;;;;;;;;20.80;41.50;;;;;;491557;240;2184;-73
2021/05/22 07:28:38;;;;;;;;;;;20.80;41.40;;;;;;491545;240;961;-73
2021/05/22 07:30:39;;;;;;;;;;;20.80;41.20;;;;;;491708;240;1072;-73
2021/05/22 07:32:40;;;;;;;;;;;20.90;41.10;;;;;;491580;240;1155;-73
2021/05/22 07:34:42;;;;;;;;;;;20.90;41.10;;;;;;491574;240;1033;-73
2021/05/22 07:36:43;;;;;;;;;;;20.90;41.10;;;;;;491577;240;1091;-73
2021/05/22 07:38:44;;;;;;;;;;;20.80;41.20;;;;;;491553;240;1082;-73
2021/05/22 07:40:45;;;;;;;;;;;20.80;41.20;;;;;;491564;240;1220;-73
2021/05/22 07:42:48;;;;;;;;;;;20.90;41.20;;;;;;491554;240;1144;-73
2021/05/22 07:44:49;;;;;;;;;;;20.80;41.10;;;;;;491459;240;1015;-73
2021/05/22 07:46:50;;;;;;;;;;;20.90;41.10;;;;;;491448;240;2153;-73
2021/05/22 07:48:52;;;;;;;;;;;21.00;40.80;;;;;;491570;240;1173;-73
2021/05/22 07:50:53;;;;;;;;;;;21.10;40.60;;;;;;491489;240;1343;-73
2021/05/22 07:52:54;;;;;;;;;;;21.00;40.90;;;;;;491612;240;1053;-73
2021/05/22 07:54:55;;;;;;;;;;;21.00;41.10;;;;;;491677;240;1111;-73
2021/05/22 07:56:57;;;;;;;;;;;20.80;41.10;;;;;;491523;240;964;-73
2021/05/22 07:58:58;;;;;;;;;;;20.80;41.20;;;;;;491540;240;966;-73
2021/05/22 08:00:59;;;;;;;;;;;20.80;41.20;;;;;;491567;240;1087;-73
2021/05/22 08:03:01;;;;;;;;;;;20.80;41.20;;;;;;491511;240;1138;-73
2021/05/22 08:05:03;;;;;;;;;;;20.80;41.20;;;;;;491512;240;1020;-73
2021/05/22 08:07:03;;;;;;;;;;;20.80;41.30;;;;;;491544;240;2145;-73
2021/05/22 08:09:05;;;;;;;;;;;20.80;41.20;;;;;;491483;240;1056;-73
2021/05/22 08:11:06;;;;;;;;;;;20.80;41.10;;;;;;491478;240;1224;-73
2021/05/22 08:13:09;;;;;;;;;;;20.90;41.20;;;;;;491490;240;1102;-73
2021/05/22 08:15:08;;;;;;;;;;;20.80;41.30;;;;;;491491;240;1420;-73
2021/05/22 08:17:10;;;;;;;;;;;20.80;41.40;;;;;;491495;240;955;-73
2021/05/22 08:19:11;;;;;;;;;;;20.80;41.30;;;;;;491602;240;1154;-73
2021/05/22 08:21:12;;;;;;;;;;;20.80;41.10;;;;;;491575;240;1060;-73
2021/05/22 08:23:13;;;;;;;;;;;20.90;41.10;;;;;;491618;240;1065;-73
2021/05/22 08:25:15;;;;;;;;;;;20.80;40.90;;;;;;491629;240;1074;-73
2021/05/22 08:27:18;;;;;;;;;;;20.80;40.80;;;;;;491537;240;2192;-73
2021/05/22 08:29:18;;;;;;;;;;;20.90;40.60;;;;;;491593;240;1472;-73
2021/05/22 08:31:19;;;;;;;;;;;21.00;40.40;;;;;;491537;240;1061;-73
2021/05/22 08:33:20;;;;;;;;;;;21.00;40.40;;;;;;491511;240;1181;-73
2021/05/22 08:35:21;;;;;;;;;;;20.90;40.30;;;;;;491534;240;1054;-73
2021/05/22 08:37:23;;;;;;;;;;;20.90;40.20;;;;;;491454;240;1162;-73
2021/05/22 08:39:24;;;;;;;;;;;20.80;40.30;;;;;;491409;240;1378;-73
2021/05/22 08:41:26;;;;;;;;;;;20.80;40.40;;;;;;491476;240;966;-73
2021/05/22 08:43:27;;;;;;;;;;;20.80;40.30;;;;;;491505;240;1071;-73
2021/05/22 08:45:28;;;;;;;;;;;20.80;40.20;;;;;;491472;240;958;-73
2021/05/22 08:47:29;;;;;;;;;;;20.80;40.00;;;;;;491578;240;2188;-73
2021/05/22 08:49:40;;;;;;;;;;;20.90;40.00;;;;;;491607;240;1212;-73
2021/05/22 08:51:32;;;;;;;;;;;20.90;40.00;;;;;;491657;240;1540;-73
2021/05/22 08:53:34;;;;;;;;;;;20.90;39.90;;;;;;491555;240;957;-73
2021/05/22 08:55:35;;;;;;;;;;;20.90;39.90;;;;;;491561;240;1477;-73
2021/05/22 08:57:36;;;;;;;;;;;21.00;39.70;;;;;;491572;240;1087;-73
2021/05/22 08:59:40;;;;;;;;;;;21.00;39.60;;;;;;491510;240;1076;-73
2021/05/22 09:01:39;;;;;;;;;;;21.00;39.60;;;;;;491480;240;1512;-73
2021/05/22 09:03:41;;;;;;;;;;;21.00;39.60;;;;;;491453;240;1178;-73
2021/05/22 09:05:42;;;;;;;;;;;21.00;39.60;;;;;;491552;240;972;-74
2021/05/22 09:07:43;;;;;;;;;;;20.90;39.70;;;;;;491562;240;2137;-73
2021/05/22 09:09:45;;;;;;;;;;;20.90;39.70;;;;;;491377;240;982;-73
2021/05/22 09:11:46;;;;;;;;;;;20.90;39.80;;;;;;491401;240;1051;-73
2021/05/22 09:13:47;;;;;;;;;;;20.90;39.70;;;;;;491544;240;967;-74
2021/05/22 09:15:48;;;;;;;;;;;20.90;39.70;;;;;;491511;240;980;-73
2021/05/22 09:17:50;;;;;;;;;;;20.80;39.70;;;;;;491529;240;1231;-73
2021/05/22 09:19:51;;;;;;;;;;;20.90;39.60;;;;;;491525;240;1169;-73
2021/05/22 09:21:52;;;;;;;;;;;20.90;39.60;;;;;;491576;240;1041;-73
2021/05/22 09:23:54;;;;;;;;;;;21.00;39.40;;;;;;491577;240;1008;-73
2021/05/22 09:25:55;;;;;;;;;;;20.90;39.40;;;;;;491524;240;1027;-73
2021/05/22 09:27:56;;;;;;;;;;;20.90;39.50;;;;;;491379;240;2200;-73
2021/05/22 09:29:57;;;;;;;;;;;20.80;39.40;;;;;;491452;240;1048;-73
2021/05/22 09:31:59;;;;;;;;;;;20.90;39.50;;;;;;491518;240;1287;-73
2021/05/22 09:34:00;;;;;;;;;;;20.90;39.30;;;;;;491437;240;1291;-73
2021/05/22 09:36:01;;;;;;;;;;;20.90;39.30;;;;;;491523;240;1058;-73
2021/05/22 09:38:03;;;;;;;;;;;20.90;39.30;;;;;;491575;240;1018;-73
2021/05/22 09:40:04;;;;;;;;;;;20.90;39.20;;;;;;491532;240;1051;-73
2021/05/22 09:42:05;;;;;;;;;;;21.00;39.10;;;;;;491613;240;1046;-73
2021/05/22 09:44:06;;;;;;;;;;;21.00;39.20;;;;;;491555;240;1078;-73
2021/05/22 09:46:08;;;;;;;;;;;20.90;39.20;;;;;;491537;240;988;-74
2021/05/22 09:48:09;;;;;;;;;;;21.10;39.10;;;;;;491556;240;2196;-73
2021/05/22 09:50:10;;;;;;;;;;;21.10;38.80;;;;;;491533;240;1173;-73
2021/05/22 09:52:12;;;;;;;;;;;21.00;38.90;;;;;;491427;240;955;-73
2021/05/22 09:54:13;;;;;;;;;;;21.00;39.00;;;;;;491443;240;991;-73
2021/05/22 09:56:14;;;;;;;;;;;21.00;39.00;;;;;;491511;240;1015;-73
2021/05/22 09:58:15;;;;;;;;;;;21.00;39.10;;;;;;491488;240;1166;-73
2021/05/22 10:00:18;;;;;;;;;;;21.00;38.90;;;;;;491418;240;1168;-73
2021/05/22 10:02:18;;;;;;;;;;;21.00;38.80;;;;;;491484;240;1328;-73
2021/05/22 10:04:20;;;;;;;;;;;21.00;38.80;;;;;;491467;240;1106;-73
2021/05/22 10:06:22;;;;;;;;;;;21.00;38.90;;;;;;491449;240;1081;-73
2021/05/22 10:08:22;;;;;;;;;;;20.90;38.90;;;;;;491510;240;2200;-74
2021/05/22 10:10:23;;;;;;;;;;;21.00;38.80;;;;;;491483;240;1079;-73
2021/05/22 10:12:25;;;;;;;;;;;20.90;38.80;;;;;;491596;240;1023;-74
2021/05/22 10:14:26;;;;;;;;;;;21.00;38.90;;;;;;491508;240;1062;-73
2021/05/22 10:16:27;;;;;;;;;;;21.00;38.90;;;;;;491475;240;1013;-73
2021/05/22 10:18:29;;;;;;;;;;;21.00;39.00;;;;;;491540;240;1032;-73
2021/05/22 10:20:30;;;;;;;;;;;21.00;38.70;;;;;;491448;240;1175;-73
2021/05/22 10:22:31;;;;;;;;;;;21.00;38.70;;;;;;491423;240;1096;-73
2021/05/22 10:24:33;;;;;;;;;;;21.00;38.60;;;;;;491447;240;1057;-73
2021/05/22 10:26:34;;;;;;;;;;;21.00;38.80;;;;;;491528;240;1066;-73
2021/05/22 10:28:35;;;;;;;;;;;20.90;38.80;;;;;;491498;240;2184;-73
2021/05/22 10:30:36;;;;;;;;;;;20.90;38.90;;;;;;491568;240;972;-73
2021/05/22 10:32:38;;;;;;;;;;;21.00;39.00;;;;;;491479;240;1155;-73
2021/05/22 10:34:39;;;;;;;;;;;21.00;38.90;;;;;;491508;240;1242;-73
2021/05/22 10:36:40;;;;;;;;;;;21.00;38.90;;;;;;491638;240;1052;-73
2021/05/22 10:38:42;;;;;;;;;;;21.00;38.80;;;;;;491572;240;1081;-73
2021/05/22 10:40:43;;;;;;;;;;;20.90;39.00;;;;;;491529;240;1340;-73
2021/05/22 10:42:44;;;;;;;;;;;20.90;39.00;;;;;;491585;240;1117;-73
2021/05/22 10:44:45;;;;;;;;;;;20.90;39.10;;;;;;491576;240;1024;-73
2021/05/22 10:46:47;;;;;;;;;;;20.90;39.10;;;;;;491394;240;1096;-73
2021/05/22 10:48:48;;;;;;;;;;;20.90;39.10;;;;;;491453;240;2179;-73
2021/05/22 10:50:49;;;;;;;;;;;21.00;39.00;;;;;;491466;240;1206;-73
2021/05/22 10:52:50;;;;;;;;;;;20.90;39.00;;;;;;491509;240;1208;-73
2021/05/22 10:54:52;;;;;;;;;;;20.90;39.00;;;;;;491492;240;1220;-73
2021/05/22 10:56:53;;;;;;;;;;;20.90;38.90;;;;;;491517;240;1155;-73
2021/05/22 10:58:54;;;;;;;;;;;20.90;38.90;;;;;;491523;240;977;-73
2021/05/22 11:00:56;;;;;;;;;;;20.90;38.70;;;;;;491466;240;1171;-73
2021/05/22 11:02:57;;;;;;;;;;;21.10;38.50;;;;;;491535;240;1026;-73
2021/05/22 11:05:00;;;;;;;;;;;21.20;38.40;;;;;;491531;240;1175;-73
2021/05/22 11:07:00;;;;;;;;;;;21.20;38.40;;;;;;491582;240;1470;-73
2021/05/22 11:09:01;;;;;;;;;;;21.20;38.30;;;;;;491471;240;2129;-73
2021/05/22 11:11:02;;;;;;;;;;;21.20;38.20;;;;;;491536;240;1062;-73
2021/05/22 11:13:04;;;;;;;;;;;21.20;38.30;;;;;;491630;240;1016;-73
2021/05/22 11:15:05;;;;;;;;;;;21.10;38.30;;;;;;491478;240;1066;-73
2021/05/22 11:17:06;;;;;;;;;;;21.10;38.40;;;;;;491523;240;978;-73
2021/05/22 11:19:07;;;;;;;;;;;21.10;38.30;;;;;;491481;240;1071;-73
2021/05/22 11:21:09;;;;;;;;;;;21.10;38.30;;;;;;491482;240;1192;-73
2021/05/22 11:23:10;;;;;;;;;;;21.10;38.30;;;;;;491448;240;1203;-73
2021/05/22 11:25:11;;;;;;;;;;;21.20;38.10;;;;;;491551;240;1000;-73
2021/05/22 11:27:13;;;;;;;;;;;21.20;38.00;;;;;;491500;240;1114;-73
2021/05/22 11:29:14;;;;;;;;;;;21.20;38.10;;;;;;491535;240;2179;-73
2021/05/22 11:31:15;;;;;;;;;;;21.20;38.10;;;;;;491513;240;1190;-73
2021/05/22 11:33:16;;;;;;;;;;;21.20;38.10;;;;;;491625;240;1049;-73
2021/05/22 11:35:18;;;;;;;;;;;21.20;38.10;;;;;;491563;240;1165;-73
2021/05/22 11:37:19;;;;;;;;;;;21.20;38.00;;;;;;491591;240;1193;-73
2021/05/22 11:39:20;;;;;;;;;;;21.20;37.90;;;;;;491547;240;971;-73
2021/05/22 11:41:22;;;;;;;;;;;21.30;37.90;;;;;;491468;240;962;-73
2021/05/22 11:43:25;;;;;;;;;;;21.20;37.90;;;;;;491509;240;1029;-73
2021/05/22 11:45:24;;;;;;;;;;;21.20;37.90;;;;;;491510;240;1499;-73
2021/05/22 11:47:26;;;;;;;;;;;21.20;37.90;;;;;;491462;240;2148;-73
2021/05/22 11:49:27;;;;;;;;;;;21.40;37.90;;;;;;491457;240;1012;-73
2021/05/22 11:51:29;;;;;;;;;;;21.40;37.50;;;;;;491499;240;1183;-73
2021/05/22 11:53:30;;;;;;;;;;;21.20;37.80;;;;;;491574;240;1380;-73
2021/05/22 11:55:31;;;;;;;;;;;21.10;37.90;;;;;;491561;240;1044;-73
2021/05/22 11:57:33;;;;;;;;;;;21.20;38.00;;;;;;491565;240;1123;-73